»·PEaware :: SKY385 KFHR-KORS

SKY385 :: KFHR-KORS

FLIGHT INFORMATION

Flight Status: Arrived
Operator:
Sky High Charters
More flights by this operator :: More flights under this callsign
Pilot: Justin Z. (25672)
Aircraft: SOCATA TBM-900
(TBM9)
More flights by this aircraft type
Origin: KFHR Friday Harbor
United States
Destination: KORS Orcas I
United States
More flights between these airports :: More routes between these airports
Route: +FHR APDON
File this flight plan on PilotEdge
Remarks: WILL FLY ODP OUT OF KFHR; SKY-3 (LEG 2)
Altitude:
(Current/Filed)
5,000ft
Speed:
(Current/Filed)
225kts
Departed: 02-Sep-19 12:21 PM
Arrived: 02-Sep-19 12:44 PM
Distance/Time
Traveled:
12nm/0:23
Distance/Time
To Go:
Arrived

Flight Plot

Page will automatically refresh every two minutes.

Flight plan parsing failed; only flown route is shown


Map Options




Map Legend


Flown Route
Filed Route
Departure Airport
Arrival Airport
Navaid (VOR, NDB)
Fix

Horizontal Profiles

Position Reports

Time Latitude Longitude Heading Altitude Ground
Speed
02-Sep-19 12:03 48.525709 -123.026304 180 117ft 0kts
02-Sep-19 12:04 48.525709 -123.026304 180 117ft 0kts
02-Sep-19 12:05 48.525709 -123.026304 180 117ft 0kts
02-Sep-19 12:06 48.525709 -123.026304 180 117ft 0kts
02-Sep-19 12:07 48.525709 -123.026304 180 117ft 0kts
02-Sep-19 12:08 48.525709 -123.026304 180 117ft 0kts
02-Sep-19 12:09 48.525709 -123.026304 180 117ft 0kts
02-Sep-19 12:10 48.525709 -123.026304 180 117ft 0kts
02-Sep-19 12:11 48.525709 -123.026304 180 117ft 0kts
02-Sep-19 12:12 48.525709 -123.026304 180 117ft 0kts
02-Sep-19 12:13 48.525709 -123.026304 180 117ft 0kts
02-Sep-19 12:14 48.525709 -123.026304 180 117ft 0kts
02-Sep-19 12:15 48.525709 -123.026304 180 117ft 0kts
02-Sep-19 12:16 48.526586 -123.025477 99 116ft 0kts
02-Sep-19 12:17 48.526586 -123.025477 99 116ft 0kts
02-Sep-19 12:18 48.526586 -123.025477 99 116ft 0kts
02-Sep-19 12:19 48.526586 -123.025477 99 116ft 0kts
02-Sep-19 12:20 48.521945 -123.024357 177 96ft 90kts
02-Sep-19 12:21 48.493694 -123.014505 111 1801ft 115kts
02-Sep-19 12:22 48.504776 -123.008064 254 3440ft 126kts
02-Sep-19 12:23 48.509941 -123.001740 148 5021ft 131kts
02-Sep-19 12:24 48.467646 -122.999345 213 5012ft 178kts
02-Sep-19 12:25 48.485281 -123.040119 33 5015ft 188kts
02-Sep-19 12:26 48.529069 -122.989336 24 5011ft 223kts
02-Sep-19 12:27 48.586692 -122.952170 23 4998ft 232kts
02-Sep-19 12:28 48.644639 -122.914791 21 4985ft 234kts
02-Sep-19 12:29 48.703670 -122.876827 21 4992ft 240kts
02-Sep-19 12:30 48.764826 -122.837294 22 4989ft 246kts
02-Sep-19 12:31 48.826397 -122.797379 22 4991ft 245kts
02-Sep-19 12:32 48.881451 -122.761452 22 4979ft 205kts
02-Sep-19 12:33 48.931464 -122.723341 29 4598ft 210kts
02-Sep-19 12:34 48.983433 -122.701035 318 3631ft 217kts
02-Sep-19 12:35 48.961381 -122.752192 175 2703ft 213kts
02-Sep-19 12:36 48.907162 -122.748304 206 1949ft 161kts
02-Sep-19 12:37 48.877580 -122.774993 211 1861ft 96kts
02-Sep-19 12:38 48.848133 -122.801307 211 1925ft 147kts
02-Sep-19 12:39 48.811824 -122.833426 211 1900ft 153kts
02-Sep-19 12:40 48.775808 -122.865296 211 1789ft 152kts
02-Sep-19 12:41 48.746189 -122.891460 212 828ft 108kts
02-Sep-19 12:42 48.722506 -122.910424 190 207ft 86kts
02-Sep-19 12:43 48.704477 -122.910457 120 38ft 14kts
02-Sep-19 12:44 48.705419 -122.909729 354 35ft 0kts
02-Sep-19 12:45 48.705419 -122.909729 354 35ft 0kts
02-Sep-19 12:46 48.705419 -122.909729 354 35ft 0kts
02-Sep-19 12:47 48.705419 -122.909729 354 35ft 0kts
02-Sep-19 12:48 48.705419 -122.909729 354 35ft 0kts
02-Sep-19 12:49 48.705419 -122.909729 354 35ft 0kts
02-Sep-19 12:50 48.705419 -122.909729 354 35ft 0kts
02-Sep-19 12:51 48.705419 -122.909729 354 35ft 0kts
02-Sep-19 12:52 48.705419 -122.909729 354 35ft 0kts
02-Sep-19 12:53 48.705419 -122.909729 354 35ft 0kts
02-Sep-19 12:54 48.705419 -122.909729 354 35ft 0kts
02-Sep-19 12:55 48.705419 -122.909729 354 35ft 0kts
02-Sep-19 12:57 48.705419 -122.909729 354 35ft 0kts
02-Sep-19 12:58 48.705419 -122.909729 354 35ft 0kts

Navigation Log

Ident Type
Flight plan parsing failed, navigation log unavailable